Time;durP1;ratioP1;P1;durP2;ratioP2;P2;SDS_P1;SDS_P2;PMS_P1;PMS_P2;Temp;Humidity;BMP_temperature;BMP_pressure;BME280_temperature;BME280_humidity;BME280_pressure;Samples;Min_cycle;Max_cycle;Signal;HPM_P1;HPM_P2
2021/06/12 00:00:47;;;;;;;2.95;2.75;;;;;;;11.40;100.00;93497.13;2104960;28;20024;-87
2021/06/12 00:01:48;;;;;;;3.30;3.10;;;;;;;11.37;100.00;93489.19;2090680;28;20029;-90
2021/06/12 00:02:49;;;;;;;2.97;2.70;;;;;;;11.31;100.00;93483.56;2096470;28;20059;-87
2021/06/12 00:03:49;;;;;;;3.15;2.95;;;;;;;11.31;100.00;93489.66;2094020;28;20025;-89
2021/06/12 00:04:51;;;;;;;3.13;2.90;;;;;;;11.30;100.00;93490.81;2106448;28;20123;-89
2021/06/12 00:05:52;;;;;;;3.17;2.97;;;;;;;11.33;100.00;93490.00;2092808;28;20055;-90
2021/06/12 00:06:57;;;;;;;3.10;2.90;;;;;;;11.30;100.00;93484.72;2097102;28;20214;-90
2021/06/12 00:07:58;;;;;;;3.15;3.00;;;;;;;11.29;100.00;93497.34;2113887;27;20024;-89
2021/06/12 00:08:59;;;;;;;4.05;3.40;;;;;;;11.29;100.00;93488.56;2114110;28;20027;-89
2021/06/12 00:10:00;;;;;;;3.20;3.00;;;;;;;11.30;100.00;93487.41;2107622;28;20028;-89
2021/06/12 00:11:02;;;;;;;3.20;3.00;;;;;;;11.29;100.00;93494.69;2092520;28;20079;-89
2021/06/12 00:12:03;;;;;;;3.88;2.97;;;;;;;11.27;100.00;93482.88;2106766;28;20030;-89
2021/06/12 00:13:04;;;;;;;2.85;2.65;;;;;;;11.25;100.00;93485.97;2112961;28;20577;-90
2021/06/12 00:14:05;;;;;;;2.90;2.80;;;;;;;11.21;100.00;93485.25;2097356;28;20530;-89
2021/06/12 00:15:08;;;;;;;2.60;2.50;;;;;;;11.19;100.00;93487.56;2100704;28;20035;-89
2021/06/12 00:16:08;;;;;;;3.22;3.03;;;;;;;11.19;100.00;93486.81;2103275;28;20027;-89
2021/06/12 00:17:09;;;;;;;3.20;3.00;;;;;;;11.19;100.00;93486.81;2106252;28;20028;-89
2021/06/12 00:18:10;;;;;;;3.03;2.83;;;;;;;11.21;100.00;93492.53;2098192;28;20032;-89
2021/06/12 00:19:11;;;;;;;3.50;3.30;;;;;;;11.21;100.00;93492.53;2096756;28;20020;-90
2021/06/12 00:20:17;;;;;;;3.35;3.08;;;;;;;11.19;100.00;93489.50;2094933;28;20025;-90
2021/06/12 00:21:18;;;;;;;3.58;3.28;;;;;;;11.17;100.00;93495.28;2092614;28;20029;-90
2021/06/12 00:22:19;;;;;;;3.35;3.13;;;;;;;11.17;100.00;93484.56;2091899;28;20516;-90
2021/06/12 00:23:19;;;;;;;3.53;3.22;;;;;;;11.17;100.00;93486.50;2096646;28;20198;-89
2021/06/12 00:24:20;;;;;;;3.00;2.75;;;;;;;11.14;100.00;93489.97;2106454;28;20090;-89
2021/06/12 00:25:25;;;;;;;3.20;2.97;;;;;;;11.16;100.00;93493.78;2104182;28;20103;-88
2021/06/12 00:26:26;;;;;;;3.20;3.00;;;;;;;11.13;100.00;93491.16;2116264;27;20111;-89
2021/06/12 00:27:27;;;;;;;2.97;2.78;;;;;;;11.16;100.00;93487.66;2115578;28;20030;-89
2021/06/12 00:28:27;;;;;;;3.15;3.00;;;;;;;11.15;100.00;93492.25;2098444;28;20025;-91
2021/06/12 00:29:28;;;;;;;3.20;3.00;;;;;;;11.10;100.00;93493.47;2103700;28;20056;-91
2021/06/12 00:30:30;;;;;;;3.10;2.90;;;;;;;10.98;100.00;93491.41;2108615;28;20028;-88
2021/06/12 00:31:31;;;;;;;3.17;2.85;;;;;;;11.00;100.00;93499.00;2110887;28;20024;-88
2021/06/12 00:32:32;;;;;;;3.00;2.80;;;;;;;11.01;100.00;93498.59;2098033;28;20035;-90
2021/06/12 00:33:33;;;;;;;3.05;2.85;;;;;;;11.00;100.00;93497.09;2089726;28;20455;-90
2021/06/12 00:34:33;;;;;;;3.08;2.95;;;;;;;11.00;100.00;93491.75;2081900;28;20080;-90
2021/06/12 00:35:34;;;;;;;3.05;2.85;;;;;;;11.03;100.00;93485.59;2094138;28;20024;-91
2021/06/12 00:36:35;;;;;;;3.10;2.90;;;;;;;11.02;100.00;93486.75;2093350;28;20016;-88
2021/06/12 00:37:36;;;;;;;3.03;2.83;;;;;;;11.02;100.00;93489.44;2089924;28;20021;-89
2021/06/12 00:38:37;;;;;;;3.17;2.97;;;;;;;11.08;100.00;93485.09;2095099;27;20032;-89
2021/06/12 00:39:38;;;;;;;3.05;2.80;;;;;;;11.01;100.00;93487.91;2103891;28;20024;-88
2021/06/12 00:40:39;;;;;;;3.70;3.40;;;;;;;11.02;100.00;93489.44;2094329;28;20021;-89
2021/06/12 00:41:40;;;;;;;3.47;3.20;;;;;;;11.04;100.00;93492.44;2091737;28;20404;-89
2021/06/12 00:42:42;;;;;;;3.55;3.22;;;;;;;11.01;100.00;93493.25;2102757;28;20121;-91
2021/06/12 00:43:43;;;;;;;3.45;3.25;;;;;;;11.02;100.00;93486.00;2104669;28;20028;-90
2021/06/12 00:44:43;;;;;;;3.28;3.08;;;;;;;10.93;100.00;93486.53;2102720;28;20044;-90
2021/06/12 00:45:46;;;;;;;3.10;2.90;;;;;;;10.97;100.00;93494.47;2096946;28;20101;-90
2021/06/12 00:46:47;;;;;;;3.08;2.88;;;;;;;10.95;100.00;93494.13;2113944;28;20062;-91
2021/06/12 00:47:49;;;;;;;3.15;2.88;;;;;;;10.91;100.00;93486.16;2099650;28;20025;-89
2021/06/12 00:48:52;;;;;;;3.38;3.13;;;;;;;10.90;100.00;93486.59;2097228;28;20024;-91
2021/06/12 00:49:53;;;;;;;3.25;3.00;;;;;;;10.92;100.00;93489.59;2104456;28;20073;-87
2021/06/12 00:50:55;;;;;;;3.80;3.50;;;;;;;10.94;100.00;93488.03;2106286;28;20116;-91
2021/06/12 00:51:56;;;;;;;3.40;3.15;;;;;;;10.91;100.00;93485.41;2092771;28;20440;-89
2021/06/12 00:52:57;;;;;;;3.00;2.80;;;;;;;10.93;100.00;93480.41;2097254;28;20048;-89
2021/06/12 00:53:58;;;;;;;3.30;3.05;;;;;;;10.88;100.00;93488.91;2091096;28;20017;-91
2021/06/12 00:54:58;;;;;;;3.72;2.97;;;;;;;10.87;100.00;93487.41;2106163;28;20023;-87
2021/06/12 00:55:59;;;;;;;3.10;2.90;;;;;;;10.80;100.00;93488.28;2097890;28;20032;-88
2021/06/12 00:57:00;;;;;;;3.30;3.10;;;;;;;10.81;100.00;93487.88;2095126;28;20087;-91
2021/06/12 00:58:01;;;;;;;2.80;2.60;;;;;;;10.79;100.00;93484.06;2106241;28;20451;-88
2021/06/12 00:59:02;;;;;;;3.00;2.80;;;;;;;10.83;100.00;93484.78;2104970;28;20028;-87
2021/06/12 01:00:06;;;;;;;2.72;2.58;;;;;;;10.80;100.00;93481.00;2105600;27;20018;-91
2021/06/12 01:01:08;;;;;;;3.00;2.80;;;;;;;10.82;100.00;93476.00;2100833;28;20020;-89
2021/06/12 01:02:08;;;;;;;3.20;3.00;;;;;;;10.79;100.00;93478.72;2101209;28;20035;-91
2021/06/12 01:03:11;;;;;;;3.00;2.80;;;;;;;10.74;100.00;93479.94;2097961;28;20025;-90
2021/06/12 01:04:12;;;;;;;2.60;2.50;;;;;;;10.75;100.00;93481.44;2097835;28;20016;-88
2021/06/12 01:05:14;;;;;;;2.92;2.72;;;;;;;10.76;100.00;93484.91;2102589;28;20028;-88
2021/06/12 01:06:17;;;;;;;3.10;2.90;;;;;;;10.76;100.00;93480.31;2089781;28;20543;-89
2021/06/12 01:07:17;;;;;;;3.10;2.80;;;;;;;10.73;100.00;93470.44;2090080;28;20029;-90
2021/06/12 01:08:18;;;;;;;3.25;3.05;;;;;;;10.72;100.00;93476.19;2089583;28;20124;-89
2021/06/12 01:09:21;;;;;;;3.03;2.83;;;;;;;10.72;100.00;93468.16;2098794;28;20024;-89
2021/06/12 01:10:22;;;;;;;2.92;2.72;;;;;;;10.76;100.00;93468.88;2100465;28;20035;-89
2021/06/12 01:11:22;;;;;;;3.05;2.85;;;;;;;10.75;100.00;93472.69;2103368;28;20060;-91
2021/06/12 01:12:41;;;;;;;3.00;2.80;;;;;;;10.72;100.00;93473.50;2093535;28;20055;-90
2021/06/12 01:13:57;;;;;;;2.80;2.60;;;;;;;10.67;100.00;93473.97;2100882;27;20028;-90
2021/06/12 01:15:05;;;;;;;2.92;2.72;;;;;;;10.68;100.00;93470.91;2103802;28;20032;-90
2021/06/12 01:16:30;;;;;;;3.13;2.92;;;;;;;10.66;100.00;93470.53;2106787;28;20067;-91
2021/06/12 01:17:46;;;;;;;2.63;2.53;;;;;;;10.66;100.00;93464.44;2093715;28;20040;-89
2021/06/12 01:18:50;;;;;;;3.17;2.97;;;;;;;10.64;100.00;93467.53;2102444;28;20028;-90
2021/06/12 01:20:15;;;;;;;2.70;2.60;;;;;;;10.56;100.00;93469.56;2101945;28;20031;-89
2021/06/12 01:21:58;;;;;;;2.50;2.30;;;;;;;10.53;100.00;93470.34;2095579;28;20024;-89
2021/06/12 01:23:34;;;;;;;3.00;2.80;;;;;;;10.57;100.00;93463.03;2057383;28;20139;-89
2021/06/12 01:24:42;;;;;;;2.60;2.50;;;;;;;10.62;100.00;93459.13;2034032;28;20521;-88
2021/06/12 01:26:07;;;;;;;2.72;2.63;;;;;;;10.57;100.00;93462.28;2059479;28;20463;-87
2021/06/12 01:27:23;;;;;;;2.88;2.67;;;;;;;10.57;100.00;93459.59;2056640;28;20035;-88
2021/06/12 01:29:02;;;;;;;3.13;2.70;;;;;;;10.55;100.00;93461.94;2069936;28;20050;-89
2021/06/12 01:30:05;;;;;;;2.95;2.67;;;;;;;10.51;100.00;93461.25;2107980;27;20020;-90
2021/06/12 01:31:08;;;;;;;2.88;2.67;;;;;;;10.45;100.00;93458.28;2110134;28;20020;-89
2021/06/12 01:32:11;;;;;;;2.92;2.72;;;;;;;10.45;100.00;93452.19;2106710;28;20016;-91
2021/06/12 01:33:13;;;;;;;2.88;2.70;;;;;;;10.47;100.00;93455.94;2087454;28;20627;-87
2021/06/12 01:34:14;;;;;;;2.78;2.67;;;;;;;10.42;100.00;93451.06;2094125;28;20029;-87
2021/06/12 01:35:22;;;;;;;3.15;2.95;;;;;;;10.42;100.00;93459.09;2086014;28;20519;-88
2021/06/12 01:36:25;;;;;;;3.17;2.97;;;;;;;10.40;100.00;93445.38;2091468;28;20032;-88
2021/06/12 01:37:26;;;;;;;2.92;2.72;;;;;;;10.44;100.00;93446.06;2087649;28;20031;-90
2021/06/12 01:38:30;;;;;;;3.13;2.80;;;;;;;10.42;100.00;93442.31;2095349;28;20023;-90
2021/06/12 01:39:32;;;;;;;3.45;3.15;;;;;;;10.43;100.00;93438.47;2092641;28;20517;-89
2021/06/12 01:40:38;;;;;;;2.58;2.47;;;;;;;10.42;100.00;93444.97;2094043;28;20097;-88
2021/06/12 01:41:41;;;;;;;3.30;3.00;;;;;;;10.41;100.00;93446.16;2102663;28;20116;-90
2021/06/12 01:42:46;;;;;;;3.10;2.90;;;;;;;10.42;100.00;93442.31;2114664;27;20101;-88
2021/06/12 01:43:49;;;;;;;3.08;2.88;;;;;;;10.43;100.00;93441.88;2098088;28;20035;-90
2021/06/12 01:44:51;;;;;;;2.92;2.70;;;;;;;10.44;100.00;93429.28;2106099;28;20053;-88
2021/06/12 01:45:52;;;;;;;2.70;2.50;;;;;;;10.42;100.00;93440.38;2103297;28;20533;-88
2021/06/12 01:46:53;;;;;;;2.90;2.70;;;;;;;10.43;100.00;93439.22;2101513;28;20024;-87
2021/06/12 01:47:54;;;;;;;3.10;2.90;;;;;;;10.42;100.00;93440.38;2093824;28;20032;-91
2021/06/12 01:48:58;;;;;;;3.35;2.97;;;;;;;10.41;100.00;93433.53;2091984;28;20519;-90
2021/06/12 01:50:01;;;;;;;3.22;2.97;;;;;;;10.43;100.00;93436.53;2092206;28;20025;-90
2021/06/12 01:51:06;;;;;;;3.35;3.15;;;;;;;10.42;100.00;93431.63;2093588;28;20021;-89
2021/06/12 01:52:07;;;;;;;3.00;2.80;;;;;;;10.42;100.00;93445.72;2104079;28;20118;-89
2021/06/12 01:53:10;;;;;;;3.25;2.95;;;;;;;10.45;100.00;93439.59;2101030;28;20020;-91
2021/06/12 01:54:13;;;;;;;3.35;3.05;;;;;;;10.50;100.00;93436.44;2098070;28;20120;-89
2021/06/12 01:55:17;;;;;;;3.20;3.00;;;;;;;10.49;100.00;93434.16;2102613;28;20055;-91
2021/06/12 01:56:19;;;;;;;3.17;2.88;;;;;;;10.50;100.00;93439.09;2090108;28;20112;-89
2021/06/12 01:57:20;;;;;;;3.30;3.10;;;;;;;10.50;100.00;93444.47;2093218;28;20373;-87
2021/06/12 01:58:23;;;;;;;2.88;2.67;;;;;;;10.46;100.00;93437.66;2089231;28;20044;-89
2021/06/12 01:59:26;;;;;;;3.03;2.72;;;;;;;10.44;100.00;93439.97;2089786;28;20033;-89
2021/06/12 02:00:28;;;;;;;2.92;2.78;;;;;;;10.39;100.00;93438.50;2105741;28;20077;-90
2021/06/12 02:01:28;;;;;;;3.15;2.95;;;;;;;10.34;100.00;93438.97;2106097;28;20016;-90
2021/06/12 02:02:29;;;;;;;3.03;2.83;;;;;;;10.30;100.00;93440.94;2096515;28;20016;-90
2021/06/12 02:03:31;;;;;;;3.22;2.92;;;;;;;10.29;100.00;93431.44;2100255;28;20032;-91
2021/06/12 02:05:41;;;;;;;;;;;;;;;10.31;100.00;93443.22;2139042;27;20173;-86
2021/06/12 02:06:44;;;;;;;3.15;2.95;;;;;;;10.32;100.00;93439.41;2120558;27;20418;-91
2021/06/12 02:07:48;;;;;;;3.22;2.90;;;;;;;10.31;100.00;93445.13;2118559;27;20473;-89
2021/06/12 02:08:51;;;;;;;3.63;3.00;;;;;;;10.29;100.00;93445.53;2121732;27;20084;-88
2021/06/12 02:09:53;;;;;;;3.20;3.00;;;;;;;10.28;100.00;93449.38;2105557;27;20027;-89
2021/06/12 02:10:54;;;;;;;3.00;2.80;;;;;;;10.28;100.00;93444.03;2111141;28;20020;-91
2021/06/12 02:11:57;;;;;;;3.00;2.80;;;;;;;10.26;100.00;93448.25;2126528;27;20042;-89
2021/06/12 02:12:59;;;;;;;3.05;2.85;;;;;;;10.25;100.00;93449.44;2125773;27;20027;-88
2021/06/12 02:13:59;;;;;;;3.13;2.92;;;;;;;10.24;100.00;93453.25;2109542;28;20101;-90
2021/06/12 02:15:03;;;;;;;3.08;2.88;;;;;;;10.23;100.00;93449.81;2114496;28;20419;-89
2021/06/12 02:16:05;;;;;;;3.00;2.80;;;;;;;10.24;100.00;93453.25;2123637;27;20113;-89
2021/06/12 02:17:05;;;;;;;2.88;2.67;;;;;;;10.25;100.00;93446.75;2115159;28;20101;-90
2021/06/12 02:18:08;;;;;;;3.20;3.00;;;;;;;10.23;100.00;93449.81;2114688;28;20028;-89
2021/06/12 02:19:10;;;;;;;2.60;2.50;;;;;;;10.19;100.00;93446.44;2117558;27;20027;-91
2021/06/12 02:20:14;;;;;;;2.78;2.67;;;;;;;10.21;100.00;93443.34;2121444;27;20498;-90
2021/06/12 02:21:18;;;;;;;3.10;2.90;;;;;;;10.20;100.00;93449.88;2135977;27;20447;-90
2021/06/12 02:22:20;;;;;;;2.95;2.75;;;;;;;10.17;100.00;93450.66;2124386;27;20031;-89
2021/06/12 02:23:23;;;;;;;3.17;2.95;;;;;;;10.16;100.00;93441.91;2128723;27;20022;-93
2021/06/12 02:24:24;;;;;;;3.35;3.15;;;;;;;10.17;100.00;93446.06;2129206;27;20053;-88
2021/06/12 02:25:25;;;;;;;2.90;2.70;;;;;;;10.17;100.00;93437.31;2117228;28;20489;-91
2021/06/12 02:26:28;;;;;;;3.10;2.90;;;;;;;10.15;100.00;93428.94;2110535;28;20032;-90
2021/06/12 02:27:30;;;;;;;2.90;2.70;;;;;;;10.19;100.00;93435.00;2109627;27;20028;-89
2021/06/12 02:28:35;;;;;;;4.25;2.97;;;;;;;10.17;100.00;93437.31;2111821;27;20367;-90
2021/06/12 02:29:37;;;;;;;3.03;2.92;;;;;;;10.16;100.00;93441.91;2108246;28;20023;-88
2021/06/12 02:30:46;;;;;;;3.25;3.05;;;;;;;10.18;100.00;93431.56;2113269;28;20019;-90
2021/06/12 02:31:52;;;;;;;3.03;2.83;;;;;;;10.20;100.00;93436.50;2113956;28;20031;-90
2021/06/12 02:33:00;;;;;;;3.00;2.80;;;;;;;10.20;100.00;93434.59;2108400;27;20082;-91
2021/06/12 02:34:01;;;;;;;2.90;2.78;;;;;;;10.19;100.00;93435.00;2117908;27;20565;-89
2021/06/12 02:35:05;;;;;;;3.25;2.97;;;;;;;10.21;100.00;93432.66;2117113;28;20106;-90
2021/06/12 02:36:06;;;;;;;3.17;2.97;;;;;;;10.24;100.00;93435.31;2120658;27;20471;-90
2021/06/12 02:37:07;;;;;;;2.90;2.70;;;;;;;10.19;100.00;93437.66;2118634;27;20030;-91
2021/06/12 02:38:09;;;;;;;3.30;3.03;;;;;;;10.19;100.00;93432.31;2121875;27;20019;-90
2021/06/12 02:39:10;;;;;;;3.13;2.80;;;;;;;10.19;100.00;93435.75;2118078;27;20043;-90
2021/06/12 02:40:12;;;;;;;3.28;2.97;;;;;;;10.18;100.00;93431.56;2115572;27;20035;-90
2021/06/12 02:41:13;;;;;;;3.10;2.90;;;;;;;10.17;100.00;93437.31;2112393;28;20058;-89
2021/06/12 02:42:14;;;;;;;2.88;2.67;;;;;;;10.15;100.00;93429.72;2116853;27;20058;-90
2021/06/12 02:43:15;;;;;;;3.28;3.00;;;;;;;10.19;100.00;93435.00;2114702;27;20406;-88
2021/06/12 02:44:15;;;;;;;3.00;2.80;;;;;;;10.19;100.00;93437.66;2122900;27;20039;-89
2021/06/12 02:45:17;;;;;;;2.97;2.78;;;;;;;10.13;100.00;93436.59;2116211;27;20148;-89
2021/06/12 02:46:23;;;;;;;3.10;2.90;;;;;;;10.14;100.00;93443.44;2109844;27;20035;-89
2021/06/12 02:47:27;;;;;;;3.22;3.00;;;;;;;10.13;100.00;93436.59;2116576;28;20024;-90
2021/06/12 02:48:31;;;;;;;3.10;2.90;;;;;;;10.05;100.00;93438.63;2118100;27;20193;-89
2021/06/12 02:49:36;;;;;;;3.10;2.90;;;;;;;10.03;100.00;93436.34;2116741;28;20419;-91
2021/06/12 02:50:37;;;;;;;2.80;2.60;;;;;;;10.05;100.00;93434.06;2108885;28;20453;-90
2021/06/12 02:51:44;;;;;;;2.90;2.70;;;;;;;10.04;100.00;93437.84;2111435;27;20077;-89
2021/06/12 02:52:46;;;;;;;3.25;3.05;;;;;;;10.05;100.00;93436.72;2119087;27;20103;-90
2021/06/12 02:53:50;;;;;;;3.38;3.17;;;;;;;10.07;100.00;93437.06;2113259;27;20081;-89
2021/06/12 02:54:51;;;;;;;3.40;3.20;;;;;;;10.06;100.00;93440.91;2108325;27;20024;-89
2021/06/12 02:55:56;;;;;;;3.20;3.00;;;;;;;10.05;100.00;93428.72;2108552;28;20027;-89
2021/06/12 02:56:57;;;;;;;3.30;3.10;;;;;;;10.06;100.00;93432.13;2116657;28;20023;-89
2021/06/12 02:58:00;;;;;;;3.45;2.95;;;;;;;10.01;100.00;93421.91;2110940;28;20532;-89
2021/06/12 02:59:05;;;;;;;3.08;2.88;;;;;;;10.06;100.00;93432.88;2120147;27;20065;-88
2021/06/12 03:00:08;;;;;;;2.83;2.63;;;;;;;10.05;100.00;93430.59;2114358;27;20024;-90
2021/06/12 03:01:08;;;;;;;3.20;2.90;;;;;;;10.05;100.00;93420.69;2108492;28;20028;-90
2021/06/12 03:02:11;;;;;;;3.17;2.90;;;;;;;10.05;100.00;93435.94;2121962;27;20027;-90
2021/06/12 03:03:13;;;;;;;2.80;2.60;;;;;;;10.05;100.00;93434.06;2114956;28;20040;-91
2021/06/12 03:04:16;;;;;;;2.90;2.70;;;;;;;10.06;100.00;93430.22;2115722;27;20111;-92
2021/06/12 03:05:22;;;;;;;3.00;2.80;;;;;;;10.06;100.00;93432.88;2123405;27;20042;-89
2021/06/12 03:06:25;;;;;;;2.95;2.78;;;;;;;10.03;100.00;93439.03;2118040;27;20059;-90
2021/06/12 03:07:28;;;;;;;3.00;2.80;;;;;;;10.05;100.00;93431.38;2108308;28;20492;-90
2021/06/12 03:08:36;;;;;;;3.20;3.00;;;;;;;10.04;100.00;93437.09;2104730;28;20035;-91
2021/06/12 03:09:38;;;;;;;2.70;2.55;;;;;;;10.00;100.00;93433.72;2106626;28;20024;-88
2021/06/12 03:10:40;;;;;;;2.88;2.67;;;;;;;10.00;100.00;93439.81;2108971;27;20027;-90
2021/06/12 03:11:41;;;;;;;3.00;2.83;;;;;;;10.00;100.00;93437.16;2109862;27;20098;-91
2021/06/12 03:12:46;;;;;;;3.00;2.80;;;;;;;10.01;100.00;93441.34;2118887;27;20027;-91
2021/06/12 03:13:48;;;;;;;2.95;2.75;;;;;;;10.01;100.00;93443.28;2119995;27;20106;-94
2021/06/12 03:14:50;;;;;;;3.15;2.70;;;;;;;10.02;100.00;93431.44;2122743;27;20023;-90
2021/06/12 03:15:52;;;;;;;3.45;2.88;;;;;;;10.01;100.00;93438.69;2117856;28;20054;-89
2021/06/12 03:16:53;;;;;;;3.25;3.05;;;;;;;9.99;100.00;93438.31;2111887;28;20019;-92
2021/06/12 03:17:55;;;;;;;3.40;3.10;;;;;;;9.96;100.00;93439.13;2099500;28;20020;-91
2021/06/12 03:18:58;;;;;;;2.60;2.40;;;;;;;9.97;100.00;93434.56;2110704;28;20026;-89
2021/06/12 03:19:59;;;;;;;3.03;2.83;;;;;;;9.96;100.00;93438.38;2107039;27;20107;-90
2021/06/12 03:21:03;;;;;;;3.00;2.80;;;;;;;9.96;100.00;93435.69;2119587;27;20031;-90
2021/06/12 03:22:05;;;;;;;2.90;2.70;;;;;;;9.91;100.00;93434.22;2118855;27;20201;-91
2021/06/12 03:23:07;;;;;;;3.03;2.72;;;;;;;9.89;100.00;93436.56;2109665;28;20035;-90
2021/06/12 03:24:10;;;;;;;3.00;2.80;;;;;;;9.92;100.00;93438.44;2108037;28;20028;-92
2021/06/12 03:25:12;;;;;;;3.10;2.90;;;;;;;9.92;100.00;93437.66;2117950;27;20047;-90
2021/06/12 03:26:13;;;;;;;2.92;2.72;;;;;;;9.92;100.00;93437.66;2116560;27;20543;-93
2021/06/12 03:27:15;;;;;;;3.20;2.92;;;;;;;9.93;100.00;93441.88;2128194;27;20051;-92
2021/06/12 03:28:16;;;;;;;3.00;2.80;;;;;;;9.91;100.00;93439.56;2118086;27;20024;-91
2021/06/12 03:29:16;;;;;;;2.90;2.75;;;;;;;9.92;100.00;93443.78;2111652;28;20027;-90
2021/06/12 03:30:18;;;;;;;3.20;3.00;;;;;;;9.89;100.00;93439.22;2111007;28;20028;-90
2021/06/12 03:31:19;;;;;;;2.90;2.70;;;;;;;9.89;100.00;93439.22;2106892;27;20058;-90
2021/06/12 03:32:20;;;;;;;3.08;2.88;;;;;;;9.92;100.00;93441.09;2102100;27;20032;-92
2021/06/12 03:33:21;;;;;;;3.10;2.90;;;;;;;9.89;100.00;93436.56;2098744;28;20032;-90
2021/06/12 03:34:22;;;;;;;3.30;3.00;;;;;;;9.89;100.00;93436.56;2101329;28;20024;-88
2021/06/12 03:35:24;;;;;;;3.20;3.00;;;;;;;9.90;100.00;93435.41;2116596;27;20100;-91
2021/06/12 03:36:26;;;;;;;3.30;3.00;;;;;;;9.90;100.00;93435.41;2126947;27;20025;-93
2021/06/12 03:37:31;;;;;;;3.03;2.80;;;;;;;9.90;100.00;93432.72;2116665;27;20395;-91
2021/06/12 03:38:35;;;;;;;3.00;2.80;;;;;;;9.90;100.00;93440.00;2113693;27;20024;-92
2021/06/12 03:39:35;;;;;;;3.10;2.90;;;;;;;9.89;100.00;93436.56;2112696;27;20092;-91
2021/06/12 03:40:37;;;;;;;3.20;3.00;;;;;;;9.92;100.00;93438.44;2111777;28;20468;-93
2021/06/12 03:41:38;;;;;;;4.03;3.05;;;;;;;9.92;100.00;93437.66;2112095;27;20036;-89
2021/06/12 03:42:39;;;;;;;2.97;2.72;;;;;;;9.93;100.00;93439.94;2106922;28;20024;-91
2021/06/12 03:43:41;;;;;;;3.15;2.95;;;;;;;9.94;100.00;93441.44;2111786;27;20024;-89
2021/06/12 03:44:45;;;;;;;3.05;2.85;;;;;;;9.94;100.00;93454.81;2102074;28;20032;-90
2021/06/12 03:45:47;;;;;;;2.78;2.67;;;;;;;9.96;100.00;93447.13;2101882;27;20115;-90
2021/06/12 03:46:50;;;;;;;2.90;2.72;;;;;;;9.98;100.00;93452.84;2110112;28;20507;-91
2021/06/12 03:47:52;;;;;;;2.75;2.50;;;;;;;10.00;100.00;93455.09;2101573;28;20021;-92
2021/06/12 03:48:54;;;;;;;2.97;2.70;;;;;;;10.00;100.00;93455.09;2102966;28;20062;-89
2021/06/12 03:49:54;;;;;;;3.22;3.03;;;;;;;9.99;100.00;93454.34;2102196;28;20059;-90
2021/06/12 03:50:57;;;;;;;2.83;2.63;;;;;;;9.99;100.00;93449.00;2103862;28;20035;-91
2021/06/12 03:51:58;;;;;;;3.13;2.92;;;;;;;10.06;100.00;93456.91;2108859;28;20477;-90
2021/06/12 03:53:01;;;;;;;2.90;2.70;;;;;;;10.06;100.00;93462.25;2111143;28;20093;-91
2021/06/12 03:54:03;;;;;;;3.20;2.90;;;;;;;10.08;100.00;93461.84;2109000;27;20595;-92
2021/06/12 03:55:06;;;;;;;2.95;2.72;;;;;;;10.10;100.00;93459.56;2103739;28;20035;-90
2021/06/12 03:56:07;;;;;;;2.97;2.78;;;;;;;10.11;100.00;93454.97;2111895;28;20047;-92
2021/06/12 03:57:08;;;;;;;3.38;3.08;;;;;;;10.14;100.00;93462.16;2116136;27;20031;-91
2021/06/12 03:58:09;;;;;;;3.30;3.10;;;;;;;10.17;100.00;93461.34;2119048;27;20023;-92
2021/06/12 03:59:11;;;;;;;3.00;2.80;;;;;;;10.13;100.00;93465.97;2113322;28;20032;-92
2021/06/12 04:00:12;;;;;;;3.10;2.90;;;;;;;10.18;100.00;93462.84;2104105;28;20024;-91
2021/06/12 04:01:18;;;;;;;2.90;2.70;;;;;;;10.21;100.00;93467.41;2119305;27;20122;-90
2021/06/12 04:02:19;;;;;;;2.72;2.60;;;;;;;10.24;100.00;93461.25;2115879;27;20267;-92
2021/06/12 04:03:20;;;;;;;2.88;2.67;;;;;;;10.26;100.00;93461.63;2103807;28;20028;-92
2021/06/12 04:04:22;;;;;;;2.85;2.65;;;;;;;10.26;100.00;93462.38;2109976;28;20050;-91
2021/06/12 04:05:23;;;;;;;3.00;2.80;;;;;;;10.30;100.00;93454.31;2114892;27;20047;-91
2021/06/12 04:06:23;;;;;;;3.03;2.83;;;;;;;10.32;100.00;93470.72;2114779;27;20028;-90
2021/06/12 04:07:25;;;;;;;2.80;2.70;;;;;;;10.36;100.00;93478.66;2111744;28;20031;-92
2021/06/12 04:08:26;;;;;;;3.20;3.00;;;;;;;10.38;100.00;93457.63;2105274;28;20076;-93
2021/06/12 04:09:27;;;;;;;2.90;2.67;;;;;;;10.40;100.00;93466.75;2104511;28;20487;-92
2021/06/12 04:10:27;;;;;;;2.88;2.78;;;;;;;10.45;100.00;93470.91;2100333;28;20095;-90
2021/06/12 04:11:28;;;;;;;3.33;2.95;;;;;;;10.45;100.00;93465.56;2113817;27;20050;-90
2021/06/12 04:12:29;;;;;;;3.15;2.95;;;;;;;10.48;100.00;93462.81;2113065;28;20115;-90
2021/06/12 04:13:29;;;;;;;2.80;2.70;;;;;;;10.47;100.00;93466.63;2100752;28;20512;-90
2021/06/12 04:14:30;;;;;;;2.80;2.60;;;;;;;10.48;100.00;93462.03;2100512;28;20436;-91
2021/06/12 04:15:31;;;;;;;2.95;2.78;;;;;;;10.51;100.00;93462.00;2101492;28;20020;-92
2021/06/12 04:16:32;;;;;;;2.90;2.70;;;;;;;10.55;100.00;93465.38;2101776;28;20028;-91
2021/06/12 04:17:33;;;;;;;2.80;2.60;;;;;;;10.54;100.00;93466.53;2111659;28;20043;-91
2021/06/12 04:18:34;;;;;;;3.47;2.90;;;;;;;10.53;100.00;93465.00;2114690;27;20023;-90
2021/06/12 04:19:38;;;;;;;3.00;2.80;;;;;;;10.56;100.00;93468.78;2111330;28;20026;-90
2021/06/12 04:20:39;;;;;;;3.05;2.85;;;;;;;10.56;100.00;93464.19;2101894;28;20560;-91
2021/06/12 04:21:40;;;;;;;3.22;3.03;;;;;;;10.58;100.00;93458.47;2119996;27;20050;-94
2021/06/12 04:22:41;;;;;;;2.95;2.75;;;;;;;10.58;100.00;93467.25;2117797;27;20415;-93
2021/06/12 04:23:42;;;;;;;2.90;2.70;;;;;;;10.58;100.00;93467.25;2114533;27;20080;-92
2021/06/12 04:24:43;;;;;;;2.97;2.78;;;;;;;10.56;100.00;93461.53;2109338;28;20032;-90
2021/06/12 04:25:43;;;;;;;2.90;2.70;;;;;;;10.59;100.00;93465.31;2106414;28;20460;-91
2021/06/12 04:26:44;;;;;;;2.80;2.65;;;;;;;10.59;100.00;93470.66;2116883;27;20403;-91
2021/06/12 04:27:45;;;;;;;2.80;2.65;;;;;;;10.62;100.00;93464.47;2111559;28;20027;-91
2021/06/12 04:28:45;;;;;;;2.80;2.70;;;;;;;10.54;100.00;93463.88;2110890;28;20036;-91
2021/06/12 04:29:46;;;;;;;2.95;2.70;;;;;;;10.62;100.00;93467.16;2123497;27;20023;-92
2021/06/12 04:30:47;;;;;;;2.67;2.58;;;;;;;10.67;100.00;93469.38;2114498;28;20031;-90
2021/06/12 04:31:48;;;;;;;2.90;2.70;;;;;;;10.71;100.00;93467.41;2110797;27;20047;-92
2021/06/12 04:32:49;;;;;;;3.22;2.90;;;;;;;10.71;100.00;93467.41;2104383;28;20400;-92
2021/06/12 04:33:49;;;;;;;2.70;2.55;;;;;;;10.69;100.00;93469.72;2098910;28;20074;-91
2021/06/12 04:34:50;;;;;;;2.95;2.75;;;;;;;10.74;100.00;93468.50;2120181;27;20106;-91
2021/06/12 04:35:51;;;;;;;2.88;2.67;;;;;;;10.74;100.00;93466.59;2118510;27;20483;-92
2021/06/12 04:36:52;;;;;;;2.80;2.60;;;;;;;10.76;100.00;93461.59;2103229;28;20033;-90
2021/06/12 04:37:53;;;;;;;3.22;2.92;;;;;;;10.81;100.00;93465.72;2114565;28;20034;-90
2021/06/12 04:38:54;;;;;;;2.60;2.50;;;;;;;10.81;100.00;93463.81;2114736;27;20107;-91
2021/06/12 04:39:55;;;;;;;2.80;2.70;;;;;;;10.81;100.00;93468.41;2113427;28;20019;-90
2021/06/12 04:40:55;;;;;;;3.03;2.70;;;;;;;10.82;100.00;93464.56;2112866;28;20062;-90
2021/06/12 04:41:57;;;;;;;3.15;2.53;;;;;;;10.84;100.00;93468.34;2126254;27;20058;-90
2021/06/12 04:42:58;;;;;;;2.50;2.30;;;;;;;10.87;100.00;93463.31;2114746;27;20088;-90
2021/06/12 04:43:59;;;;;;;2.78;2.65;;;;;;;10.89;100.00;93469.78;2112869;28;20488;-91
2021/06/12 04:45:00;;;;;;;4.78;2.58;;;;;;;10.92;100.00;93473.53;2100683;28;20020;-91
2021/06/12 04:46:00;;;;;;;2.88;2.67;;;;;;;10.96;100.00;93474.25;2110953;28;20028;-90
2021/06/12 04:47:02;;;;;;;2.75;2.65;;;;;;;11.01;100.00;93468.41;2107962;28;20020;-91
2021/06/12 04:48:04;;;;;;;3.00;2.80;;;;;;;11.02;100.00;93470.72;2108950;28;20517;-92
2021/06/12 04:49:05;;;;;;;3.00;2.80;;;;;;;11.04;100.00;93475.63;2106190;28;20076;-92
2021/06/12 04:50:07;;;;;;;2.88;2.67;;;;;;;11.05;100.00;93466.44;2120242;27;20023;-91
2021/06/12 04:51:08;;;;;;;2.97;2.78;;;;;;;11.11;100.00;93470.16;2110005;27;20077;-92
2021/06/12 04:52:08;;;;;;;2.55;2.45;;;;;;;11.12;100.00;93471.66;2116544;27;20046;-91
2021/06/12 04:53:11;;;;;;;3.10;2.83;;;;;;;11.17;100.00;93470.44;2117771;27;20114;-90
2021/06/12 04:54:11;;;;;;;3.20;3.00;;;;;;;11.19;100.00;93473.44;2100974;28;20016;-93